Zim Panama — VSWW5 — position and weather

sailwx.info

Track history (hours):
 
Tides and Currents Weather Stations Pressure Air Temp Water Temp Dewpoint Dewpoint Depression Visibility Wind Speed Wind Dir Waves Ship Positions

Zim Panama

Last reported at 2015-Feb-25 18:23 UTC. Time now 2015-Mar-03 08:55 UTC.
Position N 40°24' W 070°33'.

Length 294.12 m; beam 32.2 m; draft 9.45 m.

Type: Ship (hazmat cat C). MMSI: 235474000.

Date/timePositionNaut miles runAvg speedWind from/ knotsBaromVisibWave heightAir tempDewpointWater temp
2015-Feb-25 18:23N 40°24' W 070°33'5519.6
2015-Feb-25 15:34N 40°23' W 071°45'1919.5
2015-Feb-25 14:34N 40°23' W 072°11'5919.3
2015-Feb-25 11:29N 40°24' W 073°29'19 9.7
2015-Feb-25 09:32N 40°28' W 073°53'1212.2
2015-Feb-25 08:33N 40°37' W 074°03'5 4.8
2015-Feb-25 07:33N 40°40' W 074°09'0 0.1
2015-Feb-25 06:30N 40°40' W 074°09'0 0.0
2015-Feb-25 05:30N 40°40' W 074°09'0 0.0
2015-Feb-25 04:33N 40°40' W 074°09'0 0.0
2015-Feb-25 03:33N 40°40' W 074°09'0 0.0
2015-Feb-25 02:30N 40°40' W 074°09'0 0.0
2015-Feb-25 01:30N 40°40' W 074°09'0 0.0
2015-Feb-25 00:24N 40°40' W 074°09'0 0.0
2015-Feb-24 23:30N 40°40' W 074°09'0 0.0
2015-Feb-24 22:33N 40°40' W 074°09'0 0.0
2015-Feb-24 21:30N 40°40' W 074°09'0 0.0
2015-Feb-24 20:24N 40°40' W 074°09'0 0.0
2015-Feb-24 19:33N 40°40' W 074°09'0 0.0
2015-Feb-24 18:30N 40°40' W 074°09'0 0.0
2015-Feb-24 17:30N 40°40' W 074°09'0 0.0
2015-Feb-24 16:29N 40°40' W 074°09'0 0.0
2015-Feb-24 15:29N 40°40' W 074°09'0 0.0
2015-Feb-24 14:29N 40°40' W 074°09'0 0.0
2015-Feb-24 13:29N 40°40' W 074°09'0 0.0
2015-Feb-24 12:23N 40°40' W 074°09'0 0.0
2015-Feb-24 11:29N 40°40' W 074°09'0 0.0
2015-Feb-24 10:32N 40°40' W 074°09'0 0.0
2015-Feb-24 09:23N 40°40' W 074°09'0 0.0
2015-Feb-24 08:32N 40°40' W 074°09'0 0.0
2015-Feb-24 07:29N 40°40' W 074°09'0 0.0
2015-Feb-24 06:32N 40°40' W 074°09'0 0.0
2015-Feb-24 05:29N 40°40' W 074°09'0 0.0
2015-Feb-24 04:29N 40°40' W 074°09'0 0.0
2015-Feb-24 03:29N 40°40' W 074°09'0 0.0
2015-Feb-24 02:29N 40°40' W 074°09'0 0.0
2015-Feb-24 01:29N 40°40' W 074°09'0 0.0
2015-Feb-24 00:29N 40°40' W 074°09'0 0.0
2015-Feb-23 23:29N 40°40' W 074°09'0 0.0
2015-Feb-23 22:23N 40°40' W 074°09'0 0.0
2015-Feb-23 21:29N 40°40' W 074°09'0 0.0
2015-Feb-23 20:29N 40°40' W 074°09'0 0.0
2015-Feb-23 19:29N 40°40' W 074°09'0 0.0
2015-Feb-23 18:29N 40°40' W 074°09'0 0.0
2015-Feb-23 17:29N 40°40' W 074°09'0 0.0
2015-Feb-23 16:32N 40°40' W 074°09'0 0.0
2015-Feb-23 15:26N 40°40' W 074°09'0 0.0
2015-Feb-23 14:29N 40°40' W 074°09'0 0.0
2015-Feb-23 13:23N 40°40' W 074°09'0 0.0
2015-Feb-23 12:29N 40°40' W 074°09'0 0.0
2015-Feb-23 11:23N 40°40' W 074°09'0 0.4
2015-Feb-23 10:34N 40°39' W 074°09'5 5.2
2015-Feb-23 09:33N 40°37' W 074°03'1210.4
2015-Feb-23 08:23N 40°28' W 073°52'6 6.9
2015-Feb-23 07:30N 40°23' W 073°47'12 8.7
2015-Feb-23 06:06N 40°11' W 073°45'17 9.2
2015-Feb-23 04:19N 39°54' W 073°43'8 9.3
2015-Feb-23 03:25N 39°46' W 073°42'1415.7
2015-Feb-23 02:32N 39°33' W 073°47'5116.2
2015-Feb-22 23:24N 38°46' W 074°11'103 3.0
2015-Feb-21 12:33N 38°07' W 076°13'4816.0
2015-Feb-21 09:32N 38°55' W 076°24'1312.5
2015-Feb-21 08:28N 39°08' W 076°24'910.2
2015-Feb-21 07:33N 39°15' W 076°33'1 0.7
2015-Feb-21 06:31N 39°15' W 076°33'0 0.0
2015-Feb-21 05:31N 39°15' W 076°33'0 0.0
2015-Feb-21 04:31N 39°15' W 076°33'0 0.0
2015-Feb-21 03:28N 39°15' W 076°33'0 0.0
2015-Feb-21 02:31N 39°15' W 076°33'0 0.0
2015-Feb-21 01:28N 39°15' W 076°33'0 0.0
2015-Feb-21 00:31N 39°15' W 076°33'0 0.0
2015-Feb-20 23:31N 39°15' W 076°33'0 0.0
2015-Feb-20 22:31N 39°15' W 076°33'3 3.5
2015-Feb-20 21:33N 39°12' W 076°31'9 8.7
2015-Feb-20 20:33N 39°05' W 076°24'8 7.2
2015-Feb-20 19:27N 38°58' W 076°24'0 0.1
2015-Feb-20 18:24N 38°58' W 076°24'0 0.0
2015-Feb-20 16:24N 38°58' W 076°24'0 0.0
2015-Feb-20 15:21N 38°58' W 076°24'0 0.0
2015-Feb-20 14:30N 38°58' W 076°24'0 0.0
2015-Feb-20 12:22N 38°58' W 076°24'6 7.0
2015-Feb-20 11:32N 38°52' W 076°25'3716.3
2015-Feb-20 09:18N 38°16' W 076°17'9 7.2
2015-Feb-20 08:06N 38°08' W 076°13'0 0.1
2015-Feb-20 07:24N 38°08' W 076°13'1 0.8
2015-Feb-20 06:33N 38°08' W 076°14'1110.6
2015-Feb-20 05:32N 37°58' W 076°10'152 7.6
2015-Feb-19 09:29N 39°45' W 073°52'4313.0
2015-Feb-19 06:12N 40°27' W 073°50'710.6
2015-Feb-19 05:32N 40°31' W 073°58'1110.8
2015-Feb-19 04:33N 40°39' W 074°07'2 1.5
2015-Feb-19 03:30N 40°40' W 074°09'0 0.0
2015-Feb-19 02:24N 40°40' W 074°09'0 0.0
2015-Feb-19 01:30N 40°40' W 074°09'0 0.0
2015-Feb-19 00:30N 40°40' W 074°09'0 0.0
2015-Feb-18 23:30N 40°40' W 074°09'0 0.0
2015-Feb-18 22:30N 40°40' W 074°09'0 0.0
2015-Feb-18 21:24N 40°40' W 074°09'0 0.0
2015-Feb-18 20:30N 40°40' W 074°09'0 0.0
2015-Feb-18 19:24N 40°40' W 074°09'0 0.0
2015-Feb-18 18:24N 40°40' W 074°09'0 0.0
2015-Feb-18 17:30N 40°40' W 074°09'0 0.0
2015-Feb-18 16:30N 40°40' W 074°09'0 0.0
2015-Feb-18 15:30N 40°40' W 074°09'0 0.0
2015-Feb-18 14:30N 40°40' W 074°09'0 0.0
2015-Feb-18 13:30N 40°40' W 074°09'0 0.0
2015-Feb-18 12:30N 40°40' W 074°09'0 0.0
2015-Feb-18 11:33N 40°40' W 074°09'1 1.3
2015-Feb-18 10:33N 40°39' W 074°09'5 5.1
2015-Feb-18 09:33N 40°36' W 074°03'10 9.5
2015-Feb-18 08:33N 40°29' W 073°54'7610.8
2015-Feb-18 01:33N 40°31' W 072°15'1414.6
2015-Feb-18 00:34N 40°32' W 071°56'1514.7
2015-Feb-17 23:34N 40°32' W 071°37'1514.8
2015-Feb-17 22:34N 40°33' W 071°17'  
Track history (hours):
 
Tides and Currents Weather Stations Pressure Air Temp Water Temp Dewpoint Dewpoint Depression Visibility Wind Speed Wind Dir Waves Ship Positions

Zim Panama

Last reported at 2015-Feb-25 18:23 UTC. Time now 2015-Mar-03 08:55 UTC.
Position N 40°24' W 070°33'.

Length 294.12 m; beam 32.2 m; draft 9.45 m.

Type: Ship (hazmat cat C). MMSI: 235474000.

Date/timePositionNaut miles runAvg speedWind from/ knotsBaromVisibWave heightAir tempDewpointWater temp
2015-Feb-25 18:23N 40°24' W 070°33'5519.6
2015-Feb-25 15:34N 40°23' W 071°45'1919.5
2015-Feb-25 14:34N 40°23' W 072°11'5919.3
2015-Feb-25 11:29N 40°24' W 073°29'19 9.7
2015-Feb-25 09:32N 40°28' W 073°53'1212.2
2015-Feb-25 08:33N 40°37' W 074°03'5 4.8
2015-Feb-25 07:33N 40°40' W 074°09'0 0.1
2015-Feb-25 06:30N 40°40' W 074°09'0 0.0
2015-Feb-25 05:30N 40°40' W 074°09'0 0.0
2015-Feb-25 04:33N 40°40' W 074°09'0 0.0
2015-Feb-25 03:33N 40°40' W 074°09'0 0.0
2015-Feb-25 02:30N 40°40' W 074°09'0 0.0
2015-Feb-25 01:30N 40°40' W 074°09'0 0.0
2015-Feb-25 00:24N 40°40' W 074°09'0 0.0
2015-Feb-24 23:30N 40°40' W 074°09'0 0.0
2015-Feb-24 22:33N 40°40' W 074°09'0 0.0
2015-Feb-24 21:30N 40°40' W 074°09'0 0.0
2015-Feb-24 20:24N 40°40' W 074°09'0 0.0
2015-Feb-24 19:33N 40°40' W 074°09'0 0.0
2015-Feb-24 18:30N 40°40' W 074°09'0 0.0
2015-Feb-24 17:30N 40°40' W 074°09'0 0.0
2015-Feb-24 16:29N 40°40' W 074°09'0 0.0
2015-Feb-24 15:29N 40°40' W 074°09'0 0.0
2015-Feb-24 14:29N 40°40' W 074°09'0 0.0
2015-Feb-24 13:29N 40°40' W 074°09'0 0.0
2015-Feb-24 12:23N 40°40' W 074°09'0 0.0
2015-Feb-24 11:29N 40°40' W 074°09'0 0.0
2015-Feb-24 10:32N 40°40' W 074°09'0 0.0
2015-Feb-24 09:23N 40°40' W 074°09'0 0.0
2015-Feb-24 08:32N 40°40' W 074°09'0 0.0
2015-Feb-24 07:29N 40°40' W 074°09'0 0.0
2015-Feb-24 06:32N 40°40' W 074°09'0 0.0
2015-Feb-24 05:29N 40°40' W 074°09'0 0.0
2015-Feb-24 04:29N 40°40' W 074°09'0 0.0
2015-Feb-24 03:29N 40°40' W 074°09'0 0.0
2015-Feb-24 02:29N 40°40' W 074°09'0 0.0
2015-Feb-24 01:29N 40°40' W 074°09'0 0.0
2015-Feb-24 00:29N 40°40' W 074°09'0 0.0
2015-Feb-23 23:29N 40°40' W 074°09'0 0.0
2015-Feb-23 22:23N 40°40' W 074°09'0 0.0
2015-Feb-23 21:29N 40°40' W 074°09'0 0.0
2015-Feb-23 20:29N 40°40' W 074°09'0 0.0
2015-Feb-23 19:29N 40°40' W 074°09'0 0.0
2015-Feb-23 18:29N 40°40' W 074°09'0 0.0
2015-Feb-23 17:29N 40°40' W 074°09'0 0.0
2015-Feb-23 16:32N 40°40' W 074°09'0 0.0
2015-Feb-23 15:26N 40°40' W 074°09'0 0.0
2015-Feb-23 14:29N 40°40' W 074°09'0 0.0
2015-Feb-23 13:23N 40°40' W 074°09'0 0.0
2015-Feb-23 12:29N 40°40' W 074°09'0 0.0
2015-Feb-23 11:23N 40°40' W 074°09'0 0.4
2015-Feb-23 10:34N 40°39' W 074°09'5 5.2
2015-Feb-23 09:33N 40°37' W 074°03'1210.4
2015-Feb-23 08:23N 40°28' W 073°52'6 6.9
2015-Feb-23 07:30N 40°23' W 073°47'12 8.7
2015-Feb-23 06:06N 40°11' W 073°45'17 9.2
2015-Feb-23 04:19N 39°54' W 073°43'8 9.3
2015-Feb-23 03:25N 39°46' W 073°42'1415.7
2015-Feb-23 02:32N 39°33' W 073°47'5116.2
2015-Feb-22 23:24N 38°46' W 074°11'103 3.0
2015-Feb-21 12:33N 38°07' W 076°13'4816.0
2015-Feb-21 09:32N 38°55' W 076°24'1312.5
2015-Feb-21 08:28N 39°08' W 076°24'910.2
2015-Feb-21 07:33N 39°15' W 076°33'1 0.7
2015-Feb-21 06:31N 39°15' W 076°33'0 0.0
2015-Feb-21 05:31N 39°15' W 076°33'0 0.0
2015-Feb-21 04:31N 39°15' W 076°33'0 0.0
2015-Feb-21 03:28N 39°15' W 076°33'0 0.0
2015-Feb-21 02:31N 39°15' W 076°33'0 0.0
2015-Feb-21 01:28N 39°15' W 076°33'0 0.0
2015-Feb-21 00:31N 39°15' W 076°33'0 0.0
2015-Feb-20 23:31N 39°15' W 076°33'0 0.0
2015-Feb-20 22:31N 39°15' W 076°33'3 3.5
2015-Feb-20 21:33N 39°12' W 076°31'9 8.7
2015-Feb-20 20:33N 39°05' W 076°24'8 7.2
2015-Feb-20 19:27N 38°58' W 076°24'0 0.1
2015-Feb-20 18:24N 38°58' W 076°24'0 0.0
2015-Feb-20 16:24N 38°58' W 076°24'0 0.0
2015-Feb-20 15:21N 38°58' W 076°24'0 0.0
2015-Feb-20 14:30N 38°58' W 076°24'0 0.0
2015-Feb-20 12:22N 38°58' W 076°24'6 7.0
2015-Feb-20 11:32N 38°52' W 076°25'3716.3
2015-Feb-20 09:18N 38°16' W 076°17'9 7.2
2015-Feb-20 08:06N 38°08' W 076°13'0 0.1
2015-Feb-20 07:24N 38°08' W 076°13'1 0.8
2015-Feb-20 06:33N 38°08' W 076°14'1110.6
2015-Feb-20 05:32N 37°58' W 076°10'152 7.6
2015-Feb-19 09:29N 39°45' W 073°52'4313.0
2015-Feb-19 06:12N 40°27' W 073°50'710.6
2015-Feb-19 05:32N 40°31' W 073°58'1110.8
2015-Feb-19 04:33N 40°39' W 074°07'2 1.5
2015-Feb-19 03:30N 40°40' W 074°09'0 0.0
2015-Feb-19 02:24N 40°40' W 074°09'0 0.0
2015-Feb-19 01:30N 40°40' W 074°09'0 0.0
2015-Feb-19 00:30N 40°40' W 074°09'0 0.0
2015-Feb-18 23:30N 40°40' W 074°09'0 0.0
2015-Feb-18 22:30N 40°40' W 074°09'0 0.0
2015-Feb-18 21:24N 40°40' W 074°09'0 0.0
2015-Feb-18 20:30N 40°40' W 074°09'0 0.0
2015-Feb-18 19:24N 40°40' W 074°09'0 0.0
2015-Feb-18 18:24N 40°40' W 074°09'0 0.0
2015-Feb-18 17:30N 40°40' W 074°09'0 0.0
2015-Feb-18 16:30N 40°40' W 074°09'0 0.0
2015-Feb-18 15:30N 40°40' W 074°09'0 0.0
2015-Feb-18 14:30N 40°40' W 074°09'0 0.0
2015-Feb-18 13:30N 40°40' W 074°09'0 0.0
2015-Feb-18 12:30N 40°40' W 074°09'0 0.0
2015-Feb-18 11:33N 40°40' W 074°09'1 1.3
2015-Feb-18 10:33N 40°39' W 074°09'5 5.1
2015-Feb-18 09:33N 40°36' W 074°03'10 9.5
2015-Feb-18 08:33N 40°29' W 073°54'7610.8
2015-Feb-18 01:33N 40°31' W 072°15'1414.6
2015-Feb-18 00:34N 40°32' W 071°56'1514.7
2015-Feb-17 23:34N 40°32' W 071°37'1514.8
2015-Feb-17 22:34N 40°33' W 071°17'  

Dump ship's entire track history